sensor_id;sensor_type;location;lat;lon;timestamp;P1;durP1;ratioP1;P2;durP2;ratioP2
10031;SDS011;5056;44.272;19.892;2023-03-31T00:01:48;16.85;;;12.15;;
10031;SDS011;5056;44.272;19.892;2023-03-31T00:04:17;14.75;;;11.38;;
10031;SDS011;5056;44.272;19.892;2023-03-31T00:06:48;17.65;;;11.52;;
10031;SDS011;5056;44.272;19.892;2023-03-31T00:09:19;16.13;;;10.63;;
10031;SDS011;5056;44.272;19.892;2023-03-31T00:11:47;13.45;;;9.80;;
10031;SDS011;5056;44.272;19.892;2023-03-31T00:14:17;14.32;;;9.63;;
10031;SDS011;5056;44.272;19.892;2023-03-31T00:16:46;12.02;;;8.52;;
10031;SDS011;5056;44.272;19.892;2023-03-31T00:19:13;12.68;;;8.80;;
10031;SDS011;5056;44.272;19.892;2023-03-31T00:21:44;13.73;;;8.38;;
10031;SDS011;5056;44.272;19.892;2023-03-31T00:24:12;12.15;;;8.13;;
10031;SDS011;5056;44.272;19.892;2023-03-31T00:26:42;11.38;;;7.75;;
10031;SDS011;5056;44.272;19.892;2023-03-31T00:29:10;9.80;;;7.35;;
10031;SDS011;5056;44.272;19.892;2023-03-31T00:34:30;11.43;;;8.05;;
10031;SDS011;5056;44.272;19.892;2023-03-31T00:36:57;9.85;;;6.45;;
10031;SDS011;5056;44.272;19.892;2023-03-31T00:39:26;9.38;;;7.32;;
10031;SDS011;5056;44.272;19.892;2023-03-31T00:42:02;13.52;;;7.88;;
10031;SDS011;5056;44.272;19.892;2023-03-31T00:44:30;22.10;;;19.85;;
10031;SDS011;5056;44.272;19.892;2023-03-31T00:46:59;12.13;;;8.65;;
10031;SDS011;5056;44.272;19.892;2023-03-31T00:49:28;12.65;;;8.20;;
10031;SDS011;5056;44.272;19.892;2023-03-31T00:52:09;16.25;;;10.38;;
10031;SDS011;5056;44.272;19.892;2023-03-31T00:54:38;14.15;;;9.15;;
10031;SDS011;5056;44.272;19.892;2023-03-31T00:57:25;16.27;;;10.30;;
10031;SDS011;5056;44.272;19.892;2023-03-31T00:59:56;16.98;;;10.10;;
10031;SDS011;5056;44.272;19.892;2023-03-31T01:02:28;14.63;;;10.70;;
10031;SDS011;5056;44.272;19.892;2023-03-31T01:04:55;19.38;;;12.75;;
10031;SDS011;5056;44.272;19.892;2023-03-31T01:07:24;17.88;;;11.52;;
10031;SDS011;5056;44.272;19.892;2023-03-31T01:09:52;19.55;;;11.88;;
10031;SDS011;5056;44.272;19.892;2023-03-31T01:12:25;15.85;;;11.82;;
10031;SDS011;5056;44.272;19.892;2023-03-31T01:14:53;16.30;;;11.73;;
10031;SDS011;5056;44.272;19.892;2023-03-31T01:17:21;17.17;;;11.82;;
10031;SDS011;5056;44.272;19.892;2023-03-31T01:19:51;19.80;;;13.00;;
10031;SDS011;5056;44.272;19.892;2023-03-31T01:22:38;19.35;;;12.70;;
10031;SDS011;5056;44.272;19.892;2023-03-31T01:25:42;17.58;;;12.38;;
10031;SDS011;5056;44.272;19.892;2023-03-31T01:31:27;20.27;;;12.43;;
10031;SDS011;5056;44.272;19.892;2023-03-31T01:37:21;17.40;;;12.32;;
10031;SDS011;5056;44.272;19.892;2023-03-31T01:40:17;18.88;;;12.18;;
10031;SDS011;5056;44.272;19.892;2023-03-31T01:42:55;19.52;;;13.32;;
10031;SDS011;5056;44.272;19.892;2023-03-31T01:45:30;18.45;;;13.65;;
10031;SDS011;5056;44.272;19.892;2023-03-31T01:48:04;21.05;;;14.50;;
10031;SDS011;5056;44.272;19.892;2023-03-31T01:50:37;25.23;;;15.23;;
10031;SDS011;5056;44.272;19.892;2023-03-31T01:53:13;24.00;;;15.25;;
10031;SDS011;5056;44.272;19.892;2023-03-31T01:55:45;21.17;;;14.65;;
10031;SDS011;5056;44.272;19.892;2023-03-31T01:58:15;19.67;;;13.60;;
10031;SDS011;5056;44.272;19.892;2023-03-31T02:00:47;21.90;;;14.90;;
10031;SDS011;5056;44.272;19.892;2023-03-31T02:03:16;21.13;;;14.95;;
10031;SDS011;5056;44.272;19.892;2023-03-31T02:05:48;19.92;;;14.60;;
10031;SDS011;5056;44.272;19.892;2023-03-31T02:08:19;22.13;;;14.88;;
10031;SDS011;5056;44.272;19.892;2023-03-31T02:10:52;27.27;;;15.73;;
10031;SDS011;5056;44.272;19.892;2023-03-31T02:13:20;27.42;;;16.70;;
10031;SDS011;5056;44.272;19.892;2023-03-31T02:15:49;23.88;;;15.45;;
10031;SDS011;5056;44.272;19.892;2023-03-31T02:18:18;22.42;;;14.00;;
10031;SDS011;5056;44.272;19.892;2023-03-31T02:20:50;23.33;;;13.63;;
10031;SDS011;5056;44.272;19.892;2023-03-31T02:23:22;18.95;;;12.60;;
10031;SDS011;5056;44.272;19.892;2023-03-31T02:25:56;19.10;;;12.43;;
10031;SDS011;5056;44.272;19.892;2023-03-31T02:28:27;18.85;;;12.15;;
10031;SDS011;5056;44.272;19.892;2023-03-31T02:30:57;16.92;;;10.65;;
10031;SDS011;5056;44.272;19.892;2023-03-31T02:33:36;16.67;;;12.02;;
10031;SDS011;5056;44.272;19.892;2023-03-31T02:36:04;15.48;;;10.45;;
10031;SDS011;5056;44.272;19.892;2023-03-31T02:38:32;20.23;;;11.50;;
10031;SDS011;5056;44.272;19.892;2023-03-31T02:41:04;16.35;;;10.32;;
10031;SDS011;5056;44.272;19.892;2023-03-31T02:43:31;14.05;;;9.60;;
10031;SDS011;5056;44.272;19.892;2023-03-31T02:45:59;13.52;;;8.85;;
10031;SDS011;5056;44.272;19.892;2023-03-31T02:48:27;10.77;;;7.87;;
10031;SDS011;5056;44.272;19.892;2023-03-31T02:51:00;10.45;;;8.35;;
10031;SDS011;5056;44.272;19.892;2023-03-31T02:54:02;12.13;;;7.25;;
10031;SDS011;5056;44.272;19.892;2023-03-31T02:56:42;10.20;;;6.38;;
10031;SDS011;5056;44.272;19.892;2023-03-31T02:59:19;9.05;;;6.68;;
10031;SDS011;5056;44.272;19.892;2023-03-31T03:01:59;9.40;;;6.15;;
10031;SDS011;5056;44.272;19.892;2023-03-31T03:05:00;10.00;;;6.07;;
10031;SDS011;5056;44.272;19.892;2023-03-31T03:07:37;8.05;;;5.75;;
10031;SDS011;5056;44.272;19.892;2023-03-31T03:10:16;11.20;;;6.70;;
10031;SDS011;5056;44.272;19.892;2023-03-31T03:12:50;8.40;;;5.90;;
10031;SDS011;5056;44.272;19.892;2023-03-31T03:15:23;7.20;;;6.50;;
10031;SDS011;5056;44.272;19.892;2023-03-31T03:17:51;10.80;;;6.85;;
10031;SDS011;5056;44.272;19.892;2023-03-31T03:20:19;10.50;;;5.95;;
10031;SDS011;5056;44.272;19.892;2023-03-31T03:22:46;8.77;;;6.07;;
10031;SDS011;5056;44.272;19.892;2023-03-31T03:25:32;6.80;;;5.77;;
10031;SDS011;5056;44.272;19.892;2023-03-31T03:28:00;8.75;;;6.50;;
10031;SDS011;5056;44.272;19.892;2023-03-31T03:30:33;7.28;;;5.57;;
10031;SDS011;5056;44.272;19.892;2023-03-31T03:32:59;8.00;;;5.90;;
10031;SDS011;5056;44.272;19.892;2023-03-31T03:35:27;8.93;;;6.18;;
10031;SDS011;5056;44.272;19.892;2023-03-31T03:37:55;9.02;;;6.05;;
10031;SDS011;5056;44.272;19.892;2023-03-31T03:40:23;8.07;;;5.78;;
10031;SDS011;5056;44.272;19.892;2023-03-31T03:42:50;7.75;;;5.68;;
10031;SDS011;5056;44.272;19.892;2023-03-31T03:45:19;22.35;;;20.38;;
10031;SDS011;5056;44.272;19.892;2023-03-31T03:47:46;15.57;;;12.90;;
10031;SDS011;5056;44.272;19.892;2023-03-31T03:50:14;444.07;;;418.17;;
10031;SDS011;5056;44.272;19.892;2023-03-31T03:52:42;571.70;;;524.53;;
10031;SDS011;5056;44.272;19.892;2023-03-31T03:55:09;598.17;;;537.63;;
10031;SDS011;5056;44.272;19.892;2023-03-31T03:57:37;601.30;;;538.53;;
10031;SDS011;5056;44.272;19.892;2023-03-31T04:00:05;566.87;;;507.03;;
10031;SDS011;5056;44.272;19.892;2023-03-31T04:02:37;588.80;;;516.53;;
10031;SDS011;5056;44.272;19.892;2023-03-31T04:05:04;626.43;;;507.97;;
10031;SDS011;5056;44.272;19.892;2023-03-31T04:07:32;650.10;;;499.47;;
10031;SDS011;5056;44.272;19.892;2023-03-31T04:09:59;666.50;;;484.00;;
10031;SDS011;5056;44.272;19.892;2023-03-31T04:12:25;687.97;;;474.93;;
10031;SDS011;5056;44.272;19.892;2023-03-31T04:14:52;178.03;;;100.20;;
10031;SDS011;5056;44.272;19.892;2023-03-31T04:17:19;681.37;;;472.17;;
10031;SDS011;5056;44.272;19.892;2023-03-31T04:19:58;678.90;;;473.67;;
10031;SDS011;5056;44.272;19.892;2023-03-31T04:22:28;637.37;;;483.10;;
10031;SDS011;5056;44.272;19.892;2023-03-31T04:24:59;619.63;;;492.30;;
10031;SDS011;5056;44.272;19.892;2023-03-31T04:27:26;626.67;;;511.47;;
10031;SDS011;5056;44.272;19.892;2023-03-31T04:29:53;632.03;;;498.33;;
10031;SDS011;5056;44.272;19.892;2023-03-31T04:32:23;86.10;;;47.80;;
10031;SDS011;5056;44.272;19.892;2023-03-31T04:34:50;666.73;;;489.97;;
10031;SDS011;5056;44.272;19.892;2023-03-31T04:37:28;659.00;;;486.03;;
10031;SDS011;5056;44.272;19.892;2023-03-31T04:39:58;658.00;;;498.63;;
10031;SDS011;5056;44.272;19.892;2023-03-31T04:42:31;656.80;;;492.87;;
10031;SDS011;5056;44.272;19.892;2023-03-31T04:44:58;674.37;;;472.13;;
10031;SDS011;5056;44.272;19.892;2023-03-31T04:47:28;676.37;;;500.67;;
10031;SDS011;5056;44.272;19.892;2023-03-31T04:49:55;639.00;;;503.60;;
10031;SDS011;5056;44.272;19.892;2023-03-31T04:52:22;594.97;;;508.73;;
10031;SDS011;5056;44.272;19.892;2023-03-31T04:54:50;571.87;;;518.73;;
10031;SDS011;5056;44.272;19.892;2023-03-31T04:57:17;573.80;;;524.30;;
10031;SDS011;5056;44.272;19.892;2023-03-31T04:59:50;549.93;;;497.13;;
10031;SDS011;5056;44.272;19.892;2023-03-31T05:02:17;559.93;;;501.40;;
10031;SDS011;5056;44.272;19.892;2023-03-31T05:04:47;561.27;;;500.17;;
10031;SDS011;5056;44.272;19.892;2023-03-31T05:07:14;568.47;;;514.50;;
10031;SDS011;5056;44.272;19.892;2023-03-31T05:09:42;571.07;;;515.60;;
10031;SDS011;5056;44.272;19.892;2023-03-31T05:12:10;583.07;;;530.53;;
10031;SDS011;5056;44.272;19.892;2023-03-31T05:14:37;409.67;;;370.07;;
10031;SDS011;5056;44.272;19.892;2023-03-31T05:17:04;584.57;;;532.60;;
10031;SDS011;5056;44.272;19.892;2023-03-31T05:19:31;332.67;;;300.70;;
10031;SDS011;5056;44.272;19.892;2023-03-31T05:21:58;200.17;;;180.87;;
10031;SDS011;5056;44.272;19.892;2023-03-31T05:24:25;234.03;;;210.37;;
10031;SDS011;5056;44.272;19.892;2023-03-31T05:26:54;37.05;;;24.02;;
10031;SDS011;5056;44.272;19.892;2023-03-31T05:29:22;44.65;;;32.25;;
10031;SDS011;5056;44.272;19.892;2023-03-31T05:31:50;43.10;;;28.33;;
10031;SDS011;5056;44.272;19.892;2023-03-31T05:34:17;41.45;;;28.58;;
10031;SDS011;5056;44.272;19.892;2023-03-31T05:36:46;48.95;;;32.28;;
10031;SDS011;5056;44.272;19.892;2023-03-31T05:39:15;46.13;;;31.13;;
10031;SDS011;5056;44.272;19.892;2023-03-31T05:41:42;45.05;;;31.45;;
10031;SDS011;5056;44.272;19.892;2023-03-31T05:44:09;46.42;;;30.85;;
10031;SDS011;5056;44.272;19.892;2023-03-31T05:46:37;51.88;;;33.47;;
10031;SDS011;5056;44.272;19.892;2023-03-31T05:49:05;47.40;;;33.22;;
10031;SDS011;5056;44.272;19.892;2023-03-31T05:51:33;44.55;;;30.00;;
10031;SDS011;5056;44.272;19.892;2023-03-31T05:54:00;35.67;;;27.55;;
10031;SDS011;5056;44.272;19.892;2023-03-31T05:56:27;37.35;;;28.20;;
10031;SDS011;5056;44.272;19.892;2023-03-31T05:58:54;30.98;;;23.10;;
10031;SDS011;5056;44.272;19.892;2023-03-31T06:01:20;25.70;;;20.48;;
10031;SDS011;5056;44.272;19.892;2023-03-31T06:03:51;32.25;;;22.25;;
10031;SDS011;5056;44.272;19.892;2023-03-31T06:06:17;27.63;;;20.10;;
10031;SDS011;5056;44.272;19.892;2023-03-31T06:08:46;31.13;;;22.08;;
10031;SDS011;5056;44.272;19.892;2023-03-31T06:11:15;26.38;;;21.38;;
10031;SDS011;5056;44.272;19.892;2023-03-31T06:13:44;32.00;;;20.90;;
10031;SDS011;5056;44.272;19.892;2023-03-31T06:16:11;35.20;;;23.45;;
10031;SDS011;5056;44.272;19.892;2023-03-31T06:18:39;33.45;;;24.63;;
10031;SDS011;5056;44.272;19.892;2023-03-31T06:21:10;30.10;;;22.08;;
10031;SDS011;5056;44.272;19.892;2023-03-31T06:23:37;30.73;;;21.45;;
10031;SDS011;5056;44.272;19.892;2023-03-31T06:26:05;29.45;;;23.77;;
10031;SDS011;5056;44.272;19.892;2023-03-31T06:28:33;617.55;;;576.53;;
10031;SDS011;5056;44.272;19.892;2023-03-31T06:31:00;152.60;;;143.77;;
10031;SDS011;5056;44.272;19.892;2023-03-31T06:33:28;295.42;;;278.98;;
10031;SDS011;5056;44.272;19.892;2023-03-31T06:38:27;301.50;;;285.42;;
10031;SDS011;5056;44.272;19.892;2023-03-31T06:40:54;434.90;;;410.42;;
10031;SDS011;5056;44.272;19.892;2023-03-31T06:43:21;143.90;;;135.55;;
10031;SDS011;5056;44.272;19.892;2023-03-31T06:46:02;131.27;;;124.22;;
10031;SDS011;5056;44.272;19.892;2023-03-31T06:48:29;41.03;;;38.03;;
10031;SDS011;5056;44.272;19.892;2023-03-31T06:50:58;41.95;;;38.70;;
10031;SDS011;5056;44.272;19.892;2023-03-31T06:53:27;160.85;;;152.57;;
10031;SDS011;5056;44.272;19.892;2023-03-31T06:55:54;52.75;;;49.78;;
10031;SDS011;5056;44.272;19.892;2023-03-31T06:58:23;115.47;;;109.78;;
10031;SDS011;5056;44.272;19.892;2023-03-31T07:00:50;111.60;;;106.07;;
10031;SDS011;5056;44.272;19.892;2023-03-31T07:03:16;130.18;;;124.10;;
10031;SDS011;5056;44.272;19.892;2023-03-31T07:05:46;143.35;;;136.80;;
10031;SDS011;5056;44.272;19.892;2023-03-31T07:08:15;289.45;;;275.08;;
10031;SDS011;5056;44.272;19.892;2023-03-31T07:10:46;274.60;;;262.08;;
10031;SDS011;5056;44.272;19.892;2023-03-31T07:13:14;358.27;;;340.00;;
10031;SDS011;5056;44.272;19.892;2023-03-31T07:15:41;541.85;;;511.67;;
10031;SDS011;5056;44.272;19.892;2023-03-31T07:18:09;479.92;;;453.88;;
10031;SDS011;5056;44.272;19.892;2023-03-31T07:20:39;386.98;;;367.17;;
10031;SDS011;5056;44.272;19.892;2023-03-31T07:23:07;389.67;;;369.70;;
10031;SDS011;5056;44.272;19.892;2023-03-31T07:25:34;380.02;;;359.63;;
10031;SDS011;5056;44.272;19.892;2023-03-31T07:28:02;223.95;;;213.45;;
10031;SDS011;5056;44.272;19.892;2023-03-31T07:30:29;175.80;;;167.20;;
10031;SDS011;5056;44.272;19.892;2023-03-31T07:32:56;309.00;;;292.35;;
10031;SDS011;5056;44.272;19.892;2023-03-31T07:35:23;310.83;;;295.27;;
10031;SDS011;5056;44.272;19.892;2023-03-31T07:37:50;606.65;;;568.20;;
10031;SDS011;5056;44.272;19.892;2023-03-31T07:40:18;359.90;;;339.33;;
10031;SDS011;5056;44.272;19.892;2023-03-31T07:42:47;104.53;;;98.68;;
10031;SDS011;5056;44.272;19.892;2023-03-31T07:45:18;103.38;;;98.05;;
10031;SDS011;5056;44.272;19.892;2023-03-31T07:47:45;214.32;;;202.55;;
10031;SDS011;5056;44.272;19.892;2023-03-31T07:50:13;278.77;;;263.73;;
10031;SDS011;5056;44.272;19.892;2023-03-31T07:52:41;222.63;;;211.18;;
10031;SDS011;5056;44.272;19.892;2023-03-31T07:55:08;157.93;;;150.15;;
10031;SDS011;5056;44.272;19.892;2023-03-31T07:57:36;149.82;;;142.30;;
10031;SDS011;5056;44.272;19.892;2023-03-31T08:00:05;256.55;;;242.65;;
10031;SDS011;5056;44.272;19.892;2023-03-31T08:02:38;100.60;;;94.82;;
10031;SDS011;5056;44.272;19.892;2023-03-31T08:05:06;164.55;;;155.95;;
10031;SDS011;5056;44.272;19.892;2023-03-31T08:07:33;172.05;;;162.15;;
10031;SDS011;5056;44.272;19.892;2023-03-31T08:10:01;77.97;;;73.55;;
10031;SDS011;5056;44.272;19.892;2023-03-31T08:12:30;41.03;;;38.95;;
10031;SDS011;5056;44.272;19.892;2023-03-31T08:14:56;13.88;;;12.85;;
10031;SDS011;5056;44.272;19.892;2023-03-31T08:17:23;28.88;;;27.25;;
10031;SDS011;5056;44.272;19.892;2023-03-31T08:19:52;157.65;;;149.18;;
10031;SDS011;5056;44.272;19.892;2023-03-31T08:22:18;7.60;;;7.07;;
10031;SDS011;5056;44.272;19.892;2023-03-31T08:24:47;27.67;;;26.20;;
10031;SDS011;5056;44.272;19.892;2023-03-31T08:27:14;101.30;;;95.20;;
10031;SDS011;5056;44.272;19.892;2023-03-31T08:29:41;71.80;;;68.32;;
10031;SDS011;5056;44.272;19.892;2023-03-31T08:32:07;14.35;;;13.30;;
10031;SDS011;5056;44.272;19.892;2023-03-31T08:34:35;16.98;;;15.98;;
10031;SDS011;5056;44.272;19.892;2023-03-31T08:37:03;11.23;;;10.55;;
10031;SDS011;5056;44.272;19.892;2023-03-31T08:39:30;31.05;;;29.42;;
10031;SDS011;5056;44.272;19.892;2023-03-31T08:41:59;96.78;;;92.10;;
10031;SDS011;5056;44.272;19.892;2023-03-31T08:44:28;23.92;;;22.30;;
10031;SDS011;5056;44.272;19.892;2023-03-31T08:46:57;10.35;;;9.52;;
10031;SDS011;5056;44.272;19.892;2023-03-31T08:49:26;98.82;;;94.10;;
10031;SDS011;5056;44.272;19.892;2023-03-31T08:51:55;34.55;;;32.58;;
10031;SDS011;5056;44.272;19.892;2023-03-31T08:54:28;18.48;;;17.30;;
10031;SDS011;5056;44.272;19.892;2023-03-31T08:56:57;67.60;;;64.22;;
10031;SDS011;5056;44.272;19.892;2023-03-31T08:59:25;56.35;;;53.50;;
10031;SDS011;5056;44.272;19.892;2023-03-31T09:01:55;27.38;;;25.75;;
10031;SDS011;5056;44.272;19.892;2023-03-31T09:04:37;66.40;;;62.92;;
10031;SDS011;5056;44.272;19.892;2023-03-31T09:07:37;15.43;;;14.52;;
10031;SDS011;5056;44.272;19.892;2023-03-31T09:10:15;73.30;;;69.70;;
10031;SDS011;5056;44.272;19.892;2023-03-31T09:12:49;20.75;;;19.52;;
10031;SDS011;5056;44.272;19.892;2023-03-31T09:15:23;65.70;;;62.50;;
10031;SDS011;5056;44.272;19.892;2023-03-31T09:17:52;29.35;;;27.67;;
10031;SDS011;5056;44.272;19.892;2023-03-31T09:20:22;24.23;;;22.83;;
10031;SDS011;5056;44.272;19.892;2023-03-31T09:22:54;118.13;;;112.53;;
10031;SDS011;5056;44.272;19.892;2023-03-31T09:25:27;554.70;;;521.72;;
10031;SDS011;5056;44.272;19.892;2023-03-31T09:27:57;23.58;;;22.42;;
10031;SDS011;5056;44.272;19.892;2023-03-31T09:30:27;14.70;;;13.65;;
10031;SDS011;5056;44.272;19.892;2023-03-31T09:32:57;4.93;;;3.20;;
10031;SDS011;5056;44.272;19.892;2023-03-31T09:35:36;38.75;;;36.60;;
10031;SDS011;5056;44.272;19.892;2023-03-31T09:38:03;77.43;;;73.90;;
10031;SDS011;5056;44.272;19.892;2023-03-31T09:40:36;13.00;;;12.38;;
10031;SDS011;5056;44.272;19.892;2023-03-31T09:43:03;13.77;;;12.77;;
10031;SDS011;5056;44.272;19.892;2023-03-31T09:45:31;5.38;;;5.05;;
10031;SDS011;5056;44.272;19.892;2023-03-31T09:48:00;33.42;;;31.65;;
10031;SDS011;5056;44.272;19.892;2023-03-31T09:50:28;61.35;;;58.53;;
10031;SDS011;5056;44.272;19.892;2023-03-31T09:52:56;145.77;;;137.70;;
10031;SDS011;5056;44.272;19.892;2023-03-31T09:55:25;14.75;;;13.60;;
10031;SDS011;5056;44.272;19.892;2023-03-31T09:58:00;83.05;;;78.82;;
10031;SDS011;5056;44.272;19.892;2023-03-31T10:00:27;11.00;;;8.68;;
10031;SDS011;5056;44.272;19.892;2023-03-31T10:02:54;177.00;;;168.65;;
10031;SDS011;5056;44.272;19.892;2023-03-31T10:05:24;179.25;;;169.95;;
10031;SDS011;5056;44.272;19.892;2023-03-31T10:08:08;47.28;;;44.80;;
10031;SDS011;5056;44.272;19.892;2023-03-31T10:10:45;69.28;;;66.13;;
10031;SDS011;5056;44.272;19.892;2023-03-31T10:13:16;131.18;;;125.10;;
10031;SDS011;5056;44.272;19.892;2023-03-31T10:15:45;29.10;;;27.58;;
10031;SDS011;5056;44.272;19.892;2023-03-31T10:18:16;8.70;;;8.20;;
10031;SDS011;5056;44.272;19.892;2023-03-31T10:20:47;39.10;;;37.28;;
10031;SDS011;5056;44.272;19.892;2023-03-31T10:23:22;103.95;;;98.90;;
10031;SDS011;5056;44.272;19.892;2023-03-31T10:25:51;8.18;;;7.47;;
10031;SDS011;5056;44.272;19.892;2023-03-31T10:28:19;37.60;;;35.63;;
10031;SDS011;5056;44.272;19.892;2023-03-31T10:30:47;21.35;;;20.20;;
10031;SDS011;5056;44.272;19.892;2023-03-31T10:33:16;20.58;;;19.52;;
10031;SDS011;5056;44.272;19.892;2023-03-31T10:35:46;104.47;;;99.15;;
10031;SDS011;5056;44.272;19.892;2023-03-31T10:38:14;3.53;;;2.70;;
10031;SDS011;5056;44.272;19.892;2023-03-31T10:40:48;19.52;;;18.38;;
10031;SDS011;5056;44.272;19.892;2023-03-31T10:43:18;91.10;;;86.22;;
10031;SDS011;5056;44.272;19.892;2023-03-31T10:45:47;140.10;;;133.55;;
10031;SDS011;5056;44.272;19.892;2023-03-31T10:48:22;92.40;;;87.88;;
10031;SDS011;5056;44.272;19.892;2023-03-31T10:50:57;4.30;;;4.00;;
10031;SDS011;5056;44.272;19.892;2023-03-31T10:53:25;32.67;;;31.02;;
10031;SDS011;5056;44.272;19.892;2023-03-31T10:55:58;19.73;;;18.67;;
10031;SDS011;5056;44.272;19.892;2023-03-31T10:58:37;171.50;;;163.18;;
10031;SDS011;5056;44.272;19.892;2023-03-31T11:01:11;62.95;;;60.17;;
10031;SDS011;5056;44.272;19.892;2023-03-31T11:06:51;199.50;;;189.88;;
10031;SDS011;5056;44.272;19.892;2023-03-31T11:09:29;121.97;;;116.40;;
10031;SDS011;5056;44.272;19.892;2023-03-31T11:12:03;105.78;;;101.07;;
10031;SDS011;5056;44.272;19.892;2023-03-31T11:14:41;77.80;;;74.35;;
10031;SDS011;5056;44.272;19.892;2023-03-31T11:17:20;617.15;;;579.63;;
10031;SDS011;5056;44.272;19.892;2023-03-31T11:19:54;303.52;;;287.17;;
10031;SDS011;5056;44.272;19.892;2023-03-31T11:22:33;485.95;;;457.08;;
10031;SDS011;5056;44.272;19.892;2023-03-31T11:25:09;91.00;;;86.57;;
10031;SDS011;5056;44.272;19.892;2023-03-31T11:28:02;219.60;;;209.45;;
10031;SDS011;5056;44.272;19.892;2023-03-31T11:30:58;163.40;;;155.82;;
10031;SDS011;5056;44.272;19.892;2023-03-31T11:33:53;129.77;;;123.60;;
10031;SDS011;5056;44.272;19.892;2023-03-31T11:36:33;120.60;;;114.60;;
10031;SDS011;5056;44.272;19.892;2023-03-31T11:39:23;276.20;;;262.30;;
10031;SDS011;5056;44.272;19.892;2023-03-31T11:41:58;123.50;;;117.28;;
10031;SDS011;5056;44.272;19.892;2023-03-31T11:44:27;144.30;;;137.27;;
10031;SDS011;5056;44.272;19.892;2023-03-31T11:47:00;35.08;;;33.08;;
10031;SDS011;5056;44.272;19.892;2023-03-31T11:49:30;147.45;;;140.30;;
10031;SDS011;5056;44.272;19.892;2023-03-31T11:52:02;452.35;;;426.85;;
10031;SDS011;5056;44.272;19.892;2023-03-31T11:54:34;368.30;;;347.98;;
10031;SDS011;5056;44.272;19.892;2023-03-31T11:57:05;85.78;;;81.70;;
10031;SDS011;5056;44.272;19.892;2023-03-31T11:59:37;336.23;;;316.90;;
10031;SDS011;5056;44.272;19.892;2023-03-31T12:02:13;258.23;;;245.48;;
10031;SDS011;5056;44.272;19.892;2023-03-31T12:04:43;59.58;;;56.78;;
10031;SDS011;5056;44.272;19.892;2023-03-31T12:07:16;247.65;;;235.50;;
10031;SDS011;5056;44.272;19.892;2023-03-31T12:09:50;274.15;;;261.58;;
10031;SDS011;5056;44.272;19.892;2023-03-31T12:12:21;182.23;;;173.75;;
10031;SDS011;5056;44.272;19.892;2023-03-31T12:14:50;143.15;;;136.40;;
10031;SDS011;5056;44.272;19.892;2023-03-31T12:17:21;82.45;;;78.95;;
10031;SDS011;5056;44.272;19.892;2023-03-31T12:19:52;278.48;;;264.52;;
10031;SDS011;5056;44.272;19.892;2023-03-31T12:22:22;64.35;;;61.40;;
10031;SDS011;5056;44.272;19.892;2023-03-31T12:24:52;5.03;;;2.03;;
10031;SDS011;5056;44.272;19.892;2023-03-31T12:27:19;7.93;;;7.50;;
10031;SDS011;5056;44.272;19.892;2023-03-31T12:29:53;187.95;;;179.43;;
10031;SDS011;5056;44.272;19.892;2023-03-31T12:32:24;136.90;;;130.98;;
10031;SDS011;5056;44.272;19.892;2023-03-31T12:34:54;75.47;;;72.22;;
10031;SDS011;5056;44.272;19.892;2023-03-31T12:40:15;131.00;;;125.32;;
10031;SDS011;5056;44.272;19.892;2023-03-31T12:42:50;139.90;;;133.52;;
10031;SDS011;5056;44.272;19.892;2023-03-31T12:45:34;605.28;;;568.60;;
10031;SDS011;5056;44.272;19.892;2023-03-31T12:48:16;117.60;;;112.55;;
10031;SDS011;5056;44.272;19.892;2023-03-31T12:51:07;103.05;;;98.80;;
10031;SDS011;5056;44.272;19.892;2023-03-31T12:53:44;121.90;;;116.68;;
10031;SDS011;5056;44.272;19.892;2023-03-31T12:56:18;149.07;;;142.15;;
10031;SDS011;5056;44.272;19.892;2023-03-31T12:58:49;200.07;;;190.95;;
10031;SDS011;5056;44.272;19.892;2023-03-31T13:01:16;195.02;;;185.90;;
10031;SDS011;5056;44.272;19.892;2023-03-31T13:03:48;46.28;;;44.10;;
10031;SDS011;5056;44.272;19.892;2023-03-31T13:09:44;68.57;;;65.45;;
10031;SDS011;5056;44.272;19.892;2023-03-31T13:12:20;351.40;;;333.92;;
10031;SDS011;5056;44.272;19.892;2023-03-31T13:14:50;102.18;;;97.65;;
10031;SDS011;5056;44.272;19.892;2023-03-31T13:17:31;265.98;;;253.05;;
10031;SDS011;5056;44.272;19.892;2023-03-31T13:20:25;422.45;;;398.88;;
10031;SDS011;5056;44.272;19.892;2023-03-31T13:23:00;463.58;;;438.02;;
10031;SDS011;5056;44.272;19.892;2023-03-31T13:25:34;715.25;;;670.78;;
10031;SDS011;5056;44.272;19.892;2023-03-31T13:28:07;572.45;;;538.35;;
10031;SDS011;5056;44.272;19.892;2023-03-31T13:30:44;4.50;;;3.03;;
10031;SDS011;5056;44.272;19.892;2023-03-31T13:33:13;7.57;;;2.65;;
10031;SDS011;5056;44.272;19.892;2023-03-31T13:35:44;4.72;;;2.58;;
10031;SDS011;5056;44.272;19.892;2023-03-31T13:38:13;179.60;;;168.77;;
10031;SDS011;5056;44.272;19.892;2023-03-31T13:40:54;491.17;;;462.75;;
10031;SDS011;5056;44.272;19.892;2023-03-31T13:43:36;3.50;;;3.20;;
10031;SDS011;5056;44.272;19.892;2023-03-31T13:46:22;154.05;;;146.55;;
10031;SDS011;5056;44.272;19.892;2023-03-31T13:49:25;332.05;;;315.33;;
10031;SDS011;5056;44.272;19.892;2023-03-31T13:52:09;849.13;;;795.63;;
10031;SDS011;5056;44.272;19.892;2023-03-31T14:00:45;496.10;;;467.98;;
10031;SDS011;5056;44.272;19.892;2023-03-31T14:03:22;620.58;;;582.22;;
10031;SDS011;5056;44.272;19.892;2023-03-31T14:05:56;43.17;;;41.08;;
10031;SDS011;5056;44.272;19.892;2023-03-31T14:08:31;5.72;;;5.25;;
10031;SDS011;5056;44.272;19.892;2023-03-31T14:11:14;5.43;;;2.67;;
10031;SDS011;5056;44.272;19.892;2023-03-31T14:13:42;3.80;;;3.00;;
10031;SDS011;5056;44.272;19.892;2023-03-31T14:16:09;8.27;;;5.78;;
10031;SDS011;5056;44.272;19.892;2023-03-31T14:18:37;13.15;;;12.10;;
10031;SDS011;5056;44.272;19.892;2023-03-31T14:21:10;4.70;;;3.00;;
10031;SDS011;5056;44.272;19.892;2023-03-31T14:23:48;11.25;;;10.27;;
10031;SDS011;5056;44.272;19.892;2023-03-31T14:26:28;4.18;;;2.17;;
10031;SDS011;5056;44.272;19.892;2023-03-31T14:29:08;2.78;;;2.58;;
10031;SDS011;5056;44.272;19.892;2023-03-31T14:31:48;3.00;;;2.67;;
10031;SDS011;5056;44.272;19.892;2023-03-31T14:34:33;20.92;;;19.63;;
10031;SDS011;5056;44.272;19.892;2023-03-31T14:37:11;239.65;;;228.00;;
10031;SDS011;5056;44.272;19.892;2023-03-31T14:39:43;621.95;;;580.78;;
10031;SDS011;5056;44.272;19.892;2023-03-31T14:42:13;262.92;;;247.55;;
10031;SDS011;5056;44.272;19.892;2023-03-31T14:44:42;887.83;;;827.20;;
10031;SDS011;5056;44.272;19.892;2023-03-31T14:47:13;594.03;;;558.78;;
10031;SDS011;5056;44.272;19.892;2023-03-31T14:49:57;624.25;;;586.65;;
10031;SDS011;5056;44.272;19.892;2023-03-31T14:52:27;799.08;;;748.53;;
10031;SDS011;5056;44.272;19.892;2023-03-31T14:54:59;553.92;;;520.13;;
10031;SDS011;5056;44.272;19.892;2023-03-31T14:57:27;376.23;;;353.70;;
10031;SDS011;5056;44.272;19.892;2023-03-31T14:59:57;290.40;;;274.88;;
10031;SDS011;5056;44.272;19.892;2023-03-31T15:02:29;391.63;;;370.77;;
10031;SDS011;5056;44.272;19.892;2023-03-31T15:04:57;485.85;;;457.13;;
10031;SDS011;5056;44.272;19.892;2023-03-31T15:07:24;647.05;;;606.13;;